Terminal Aerodrome Forecast
Issued by NWS

Home | Current Version | Previous Version | Graphics & Text | Print | Product List | Glossary On
Versions: 1 2 3 4 5 6 7 8 9 10 11 12 13 14 15 16 17
000
FTUS43 KMPX 212320
TAFAXN
TAF
KAXN 212320Z 2200/2224 17012KT P6SM FEW030 SCT090 BKN250
     FM220200 13007KT P6SM VCTS SCT050 BKN090CB
     FM220600 09007KT P6SM SCT025
      TEMPO 2208/2212 4SM BR BKN025
     FM221200 31007KT P6SM SCT035
     FM221700 31014G21KT P6SM SCT050=

USA.gov is the U.S. government's official web portal to all federal, state and local government web resources and services.